createdAt,value
2022-12-19T00:00:43.649Z,1000.60
2022-12-19T00:01:43.767Z,1000.63
2022-12-19T00:02:43.729Z,1000.59
2022-12-19T00:03:43.675Z,1000.60
2022-12-19T00:04:43.602Z,1000.61
2022-12-19T00:05:43.584Z,1000.58
2022-12-19T00:06:44.303Z,1000.56
2022-12-19T00:07:43.579Z,1000.62
2022-12-19T00:08:43.572Z,1000.55
2022-12-19T00:09:43.548Z,1000.55
2022-12-19T00:10:43.542Z,1000.47
2022-12-19T00:11:43.539Z,1000.43
2022-12-19T00:12:43.517Z,1000.42
2022-12-19T00:13:43.640Z,1000.47
2022-12-19T00:14:43.486Z,1000.41
2022-12-19T00:15:43.475Z,1000.32
2022-12-19T00:16:43.585Z,1000.31
2022-12-19T00:17:43.457Z,1000.39
2022-12-19T00:18:43.450Z,1000.32
2022-12-19T00:19:43.431Z,1000.24
2022-12-19T00:20:43.423Z,1000.23
2022-12-19T00:21:43.407Z,1000.23
2022-12-19T00:22:43.400Z,1000.20
2022-12-19T00:23:43.411Z,1000.15
2022-12-19T00:24:43.395Z,1000.11
2022-12-19T00:25:43.366Z,1000.12
2022-12-19T00:26:43.367Z,1000.12
2022-12-19T00:27:43.340Z,1000.14
2022-12-19T00:28:43.327Z,1000.11
2022-12-19T00:29:43.312Z,1000.10
2022-12-19T00:30:43.313Z,1000.17
2022-12-19T00:31:43.466Z,1000.16
2022-12-19T00:32:43.287Z,1000.21
2022-12-19T00:33:43.778Z,1000.23
2022-12-19T00:34:43.256Z,1000.17
2022-12-19T00:35:43.252Z,1000.21
2022-12-19T00:36:43.242Z,1000.28
2022-12-19T00:37:49.172Z,1000.29
2022-12-19T00:38:43.232Z,1000.27
2022-12-19T00:39:43.199Z,1000.29
2022-12-19T00:40:43.189Z,1000.26
2022-12-19T00:41:43.182Z,1000.31
2022-12-19T00:42:43.177Z,1000.24
2022-12-19T00:43:43.158Z,1000.21
2022-12-19T00:44:43.174Z,1000.15
2022-12-19T00:45:43.151Z,1000.16
2022-12-19T00:46:43.127Z,1000.11
2022-12-19T00:47:43.109Z,1000.03
2022-12-19T00:48:43.114Z,1000.03
2022-12-19T00:49:43.094Z,1000.00
2022-12-19T00:50:43.084Z,999.94
2022-12-19T00:51:43.073Z,999.91
2022-12-19T00:52:43.052Z,999.92
2022-12-19T00:53:43.043Z,999.91
2022-12-19T00:54:43.058Z,999.87
2022-12-19T00:55:43.023Z,999.92
2022-12-19T00:56:43.014Z,999.90
2022-12-19T00:57:43.009Z,999.88
2022-12-19T00:58:46.795Z,999.88
2022-12-19T00:59:42.977Z,999.88
2022-12-19T01:00:43.020Z,999.94
2022-12-19T01:01:43.338Z,999.88
2022-12-19T01:02:43.078Z,999.86
2022-12-19T01:03:58.046Z,999.83
2022-12-19T01:04:42.931Z,999.75
2022-12-19T01:05:42.903Z,999.78
2022-12-19T01:06:42.897Z,999.66
2022-12-19T01:07:42.911Z,999.70
2022-12-19T01:08:42.870Z,999.73
2022-12-19T01:09:42.875Z,999.66
2022-12-19T01:10:42.850Z,999.66
2022-12-19T01:11:42.839Z,999.71
2022-12-19T01:12:42.842Z,999.70
2022-12-19T01:13:42.821Z,999.72
2022-12-19T01:14:42.807Z,999.85
2022-12-19T01:15:42.793Z,1000.03
2022-12-19T01:16:42.831Z,1000.11
2022-12-19T01:17:44.712Z,1000.18
2022-12-19T01:18:42.764Z,1000.13
2022-12-19T01:19:44.589Z,1000.15
2022-12-19T01:20:42.733Z,1000.07
2022-12-19T01:21:42.722Z,1000.08
2022-12-19T01:22:42.721Z,1000.08
2022-12-19T01:23:42.701Z,999.99
2022-12-19T01:24:42.710Z,1000.00
2022-12-19T01:25:45.254Z,999.95
2022-12-19T01:26:42.665Z,1000.01
2022-12-19T01:27:42.706Z,999.86
2022-12-19T01:28:42.649Z,999.93
2022-12-19T01:29:47.896Z,999.83
2022-12-19T01:30:42.649Z,999.81
2022-12-19T01:31:42.840Z,999.79
2022-12-19T01:32:42.601Z,999.85
2022-12-19T01:33:42.588Z,999.80
2022-12-19T01:34:42.577Z,999.85
2022-12-19T01:35:42.571Z,999.79
2022-12-19T01:36:42.556Z,999.74
2022-12-19T01:37:42.549Z,999.75
2022-12-19T01:38:42.541Z,999.69
2022-12-19T01:39:44.854Z,999.64
2022-12-19T01:40:42.521Z,999.60
2022-12-19T01:41:42.500Z,999.62
2022-12-19T01:42:42.512Z,999.62
2022-12-19T01:43:42.490Z,999.65
2022-12-19T01:44:42.469Z,999.66
2022-12-19T01:45:45.976Z,999.55
2022-12-19T01:46:42.509Z,999.51
2022-12-19T01:47:42.424Z,999.51
2022-12-19T01:48:42.428Z,999.35
2022-12-19T01:49:42.409Z,999.49
2022-12-19T01:50:46.555Z,999.52
2022-12-19T01:51:42.404Z,999.55
2022-12-19T01:52:42.375Z,999.47
2022-12-19T01:53:48.331Z,999.39
2022-12-19T01:54:42.359Z,999.48
2022-12-19T01:55:42.392Z,999.45
2022-12-19T01:56:42.304Z,999.45
2022-12-19T01:57:42.284Z,999.55
2022-12-19T01:58:42.285Z,999.55
2022-12-19T01:59:42.275Z,999.42
2022-12-19T02:00:42.300Z,999.43
2022-12-19T02:01:50.759Z,999.43
2022-12-19T02:02:42.343Z,999.36
2022-12-19T02:03:42.220Z,999.41
2022-12-19T02:04:42.208Z,999.38
2022-12-19T02:05:42.204Z,999.36
2022-12-19T02:06:42.183Z,999.35
2022-12-19T02:07:42.195Z,999.40
2022-12-19T02:08:42.164Z,999.34
2022-12-19T02:09:42.157Z,999.25
2022-12-19T02:10:42.157Z,999.18
2022-12-19T02:11:42.132Z,999.07
2022-12-19T02:12:42.146Z,999.08
2022-12-19T02:13:42.105Z,999.03
2022-12-19T02:14:42.096Z,999.03
2022-12-19T02:15:42.091Z,999.01
2022-12-19T02:16:42.100Z,998.91
2022-12-19T02:17:42.079Z,998.83
2022-12-19T02:18:42.058Z,998.97
2022-12-19T02:19:42.059Z,998.80
2022-12-19T02:20:42.036Z,998.82
2022-12-19T02:21:42.029Z,998.78
2022-12-19T02:22:42.018Z,998.79
2022-12-19T02:23:41.991Z,998.69
2022-12-19T02:24:41.997Z,998.74
2022-12-19T02:25:41.985Z,998.73
2022-12-19T02:26:41.971Z,998.79
2022-12-19T02:27:41.961Z,998.66
2022-12-19T02:28:41.954Z,998.74
2022-12-19T02:29:41.954Z,998.81
2022-12-19T02:30:41.925Z,998.77
2022-12-19T02:31:41.958Z,998.85
2022-12-19T02:32:41.914Z,998.71
2022-12-19T02:33:41.883Z,998.65
2022-12-19T02:34:44.542Z,998.54
2022-12-19T02:35:41.862Z,998.63
2022-12-19T02:36:42.060Z,998.55
2022-12-19T02:37:41.846Z,998.44
2022-12-19T02:38:41.848Z,998.50
2022-12-19T02:39:41.823Z,998.34
2022-12-19T02:40:41.831Z,998.32
2022-12-19T02:41:41.810Z,998.38
2022-12-19T02:42:41.798Z,998.30
2022-12-19T02:43:41.798Z,998.40
2022-12-19T02:44:41.764Z,998.33
2022-12-19T02:45:41.836Z,998.37
2022-12-19T02:46:41.760Z,998.39
2022-12-19T02:47:41.742Z,998.38
2022-12-19T02:48:41.728Z,998.35
2022-12-19T02:49:41.716Z,998.43
2022-12-19T02:50:41.730Z,998.41
2022-12-19T02:51:41.701Z,998.38
2022-12-19T02:52:41.685Z,998.42
2022-12-19T02:53:41.674Z,998.40
2022-12-19T02:54:43.574Z,998.34
2022-12-19T02:55:41.663Z,998.29
2022-12-19T02:56:41.642Z,998.27
2022-12-19T02:57:41.625Z,998.21
2022-12-19T02:58:41.634Z,998.21
2022-12-19T02:59:41.607Z,998.25
2022-12-19T03:00:41.632Z,998.17
2022-12-19T03:01:41.727Z,998.24
2022-12-19T03:02:41.761Z,998.17
2022-12-19T03:03:41.608Z,998.20
2022-12-19T03:04:41.566Z,998.26
2022-12-19T03:05:41.552Z,998.22
2022-12-19T03:06:41.569Z,998.32
2022-12-19T03:07:41.516Z,998.24
2022-12-19T03:08:41.528Z,998.28
2022-12-19T03:09:41.515Z,998.35
2022-12-19T03:10:41.502Z,998.30
2022-12-19T03:11:41.471Z,998.30
2022-12-19T03:12:41.486Z,998.30
2022-12-19T03:13:41.486Z,998.32
2022-12-19T03:14:41.450Z,998.28
2022-12-19T03:15:41.440Z,998.20
2022-12-19T03:16:41.496Z,998.26
2022-12-19T03:17:41.407Z,998.27
2022-12-19T03:18:41.399Z,998.35
2022-12-19T03:19:41.409Z,998.31
2022-12-19T03:20:41.382Z,998.28
2022-12-19T03:21:41.408Z,998.32
2022-12-19T03:22:41.358Z,998.26
2022-12-19T03:23:41.347Z,998.26
2022-12-19T03:24:41.347Z,998.31
2022-12-19T03:25:41.339Z,998.31
2022-12-19T03:26:41.326Z,998.25
2022-12-19T03:27:41.312Z,998.27
2022-12-19T03:28:41.295Z,998.25
2022-12-19T03:29:41.278Z,998.36
2022-12-19T03:30:41.302Z,998.27
2022-12-19T03:31:41.284Z,998.25
2022-12-19T03:32:41.257Z,998.23
2022-12-19T03:33:41.236Z,998.24
2022-12-19T03:34:41.221Z,998.24
2022-12-19T03:35:41.232Z,998.33
2022-12-19T03:36:41.203Z,998.26
2022-12-19T03:37:41.194Z,998.24
2022-12-19T03:38:41.195Z,998.32
2022-12-19T03:39:41.168Z,998.29
2022-12-19T03:40:41.156Z,998.34
2022-12-19T03:41:41.150Z,998.32
2022-12-19T03:42:41.148Z,998.28
2022-12-19T03:43:41.134Z,998.27
2022-12-19T03:44:41.114Z,998.24
2022-12-19T03:45:41.139Z,998.23
2022-12-19T03:46:41.109Z,998.17
2022-12-19T03:47:41.100Z,998.03
2022-12-19T03:48:41.066Z,998.13
2022-12-19T03:49:41.061Z,998.08
2022-12-19T03:50:41.061Z,998.03
2022-12-19T03:51:41.037Z,998.02
2022-12-19T03:52:41.021Z,997.98
2022-12-19T03:53:41.035Z,997.85
2022-12-19T03:54:41.010Z,997.92
2022-12-19T03:55:40.986Z,997.75
2022-12-19T03:56:40.995Z,997.83
2022-12-19T03:57:40.973Z,997.87
2022-12-19T03:58:40.969Z,997.83
2022-12-19T03:59:40.967Z,997.87
2022-12-19T04:00:40.943Z,997.88
2022-12-19T04:01:41.043Z,997.93
2022-12-19T04:02:40.912Z,997.87
2022-12-19T04:03:41.037Z,997.91
2022-12-19T04:04:40.896Z,997.87
2022-12-19T04:05:40.887Z,997.75
2022-12-19T04:06:40.864Z,997.82
2022-12-19T04:07:40.853Z,997.86
2022-12-19T04:08:40.876Z,997.84
2022-12-19T04:09:40.857Z,997.92
2022-12-19T04:10:40.833Z,998.00
2022-12-19T04:11:40.811Z,997.92
2022-12-19T04:12:40.803Z,997.83
2022-12-19T04:13:40.786Z,997.73
2022-12-19T04:14:40.779Z,997.74
2022-12-19T04:15:40.817Z,997.82
2022-12-19T04:16:40.776Z,997.79
2022-12-19T04:17:40.758Z,997.67
2022-12-19T04:18:40.734Z,997.56
2022-12-19T04:19:42.686Z,997.68
2022-12-19T04:20:40.730Z,997.83
2022-12-19T04:21:40.694Z,997.89
2022-12-19T04:22:40.706Z,997.73
2022-12-19T04:23:40.677Z,997.71
2022-12-19T04:24:40.664Z,997.75
2022-12-19T04:25:40.655Z,997.67
2022-12-19T04:26:40.658Z,997.85
2022-12-19T04:27:40.640Z,997.71
2022-12-19T04:28:40.618Z,997.71
2022-12-19T04:29:40.606Z,997.66
2022-12-19T04:30:40.614Z,997.74
2022-12-19T04:31:40.590Z,997.82
2022-12-19T04:32:40.581Z,997.85
2022-12-19T04:33:40.562Z,997.77
2022-12-19T04:34:43.008Z,997.85
2022-12-19T04:35:40.549Z,997.72
2022-12-19T04:36:40.533Z,997.68
2022-12-19T04:37:40.519Z,997.58
2022-12-19T04:38:40.538Z,997.73
2022-12-19T04:39:40.487Z,997.83
2022-12-19T04:40:41.727Z,997.90
2022-12-19T04:41:40.477Z,997.82
2022-12-19T04:42:40.459Z,997.70
2022-12-19T04:43:40.459Z,997.62
2022-12-19T04:44:40.451Z,997.83
2022-12-19T04:45:40.424Z,997.95
2022-12-19T04:46:40.450Z,997.94
2022-12-19T04:47:40.399Z,997.86
2022-12-19T04:48:40.384Z,997.81
2022-12-19T04:49:40.406Z,997.81
2022-12-19T04:50:40.381Z,997.67
2022-12-19T04:51:40.352Z,997.69
2022-12-19T04:52:40.356Z,997.77
2022-12-19T04:53:40.346Z,997.70
2022-12-19T04:54:40.317Z,997.65
2022-12-19T04:55:40.331Z,997.79
2022-12-19T04:56:40.303Z,997.80
2022-12-19T04:57:40.318Z,997.86
2022-12-19T04:58:40.279Z,997.86
2022-12-19T04:59:40.301Z,997.75
2022-12-19T05:00:40.244Z,997.87
2022-12-19T05:01:41.074Z,997.75
2022-12-19T05:02:40.422Z,997.84
2022-12-19T05:03:40.251Z,997.81
2022-12-19T05:04:40.228Z,997.73
2022-12-19T05:05:40.210Z,997.77
2022-12-19T05:06:40.184Z,997.73
2022-12-19T05:07:40.172Z,997.71
2022-12-19T05:08:40.165Z,997.73
2022-12-19T05:09:40.198Z,997.71
2022-12-19T05:10:40.148Z,997.64
2022-12-19T05:11:40.181Z,997.61
2022-12-19T05:12:40.125Z,997.53
2022-12-19T05:13:40.116Z,997.43
2022-12-19T05:14:40.120Z,997.59
2022-12-19T05:15:40.161Z,997.57
2022-12-19T05:16:40.075Z,997.72
2022-12-19T05:17:40.072Z,997.69
2022-12-19T05:18:40.046Z,997.66
2022-12-19T05:19:40.054Z,997.62
2022-12-19T05:20:40.050Z,997.61
2022-12-19T05:21:40.039Z,997.60
2022-12-19T05:22:40.004Z,997.62
2022-12-19T05:23:39.988Z,997.63
2022-12-19T05:24:39.978Z,997.51
2022-12-19T05:25:39.990Z,997.54
2022-12-19T05:26:39.964Z,997.57
2022-12-19T05:27:39.990Z,997.56
2022-12-19T05:28:39.961Z,997.52
2022-12-19T05:29:39.943Z,997.64
2022-12-19T05:30:39.917Z,997.58
2022-12-19T05:31:39.953Z,997.63
2022-12-19T05:32:39.905Z,997.66
2022-12-19T05:33:39.885Z,997.68
2022-12-19T05:34:39.876Z,997.71
2022-12-19T05:35:39.854Z,997.62
2022-12-19T05:36:39.850Z,997.57
2022-12-19T05:37:39.854Z,997.62
2022-12-19T05:38:39.829Z,997.58
2022-12-19T05:39:39.836Z,997.52
2022-12-19T05:40:39.830Z,997.47
2022-12-19T05:41:39.795Z,997.43
2022-12-19T05:42:39.781Z,997.41
2022-12-19T05:43:39.805Z,997.49
2022-12-19T05:44:39.758Z,997.57
2022-12-19T05:45:39.761Z,997.70
2022-12-19T05:46:39.747Z,997.66
2022-12-19T05:47:39.735Z,997.62
2022-12-19T05:48:39.724Z,997.73
2022-12-19T05:49:39.750Z,997.68
2022-12-19T05:50:39.708Z,997.74
2022-12-19T05:51:39.677Z,997.78
2022-12-19T05:52:39.661Z,997.75
2022-12-19T05:53:39.652Z,997.73
2022-12-19T05:54:39.676Z,997.84
2022-12-19T05:55:39.643Z,997.82
2022-12-19T05:56:39.635Z,997.60
2022-12-19T05:57:39.608Z,997.72
2022-12-19T05:58:39.621Z,997.92
2022-12-19T05:59:39.590Z,997.84
2022-12-19T06:00:39.575Z,997.80
2022-12-19T06:01:39.696Z,997.81
2022-12-19T06:02:39.694Z,997.79
2022-12-19T06:03:39.611Z,997.79
2022-12-19T06:04:39.543Z,997.85
2022-12-19T06:05:39.534Z,997.94
2022-12-19T06:06:39.518Z,997.76
2022-12-19T06:07:39.518Z,997.88
2022-12-19T06:08:39.518Z,997.88
2022-12-19T06:09:39.472Z,997.85
2022-12-19T06:10:39.482Z,997.84
2022-12-19T06:11:39.472Z,997.78
2022-12-19T06:12:39.450Z,997.79
2022-12-19T06:13:39.434Z,997.82
2022-12-19T06:14:39.412Z,997.85
2022-12-19T06:15:39.426Z,997.98
2022-12-19T06:16:39.443Z,998.01
2022-12-19T06:17:39.435Z,997.90
2022-12-19T06:18:44.158Z,997.89
2022-12-19T06:19:39.372Z,997.88
2022-12-19T06:20:39.361Z,997.89
2022-12-19T06:21:45.426Z,997.86
2022-12-19T06:22:39.346Z,997.86
2022-12-19T06:23:39.316Z,997.88
2022-12-19T06:24:39.303Z,997.85
2022-12-19T06:25:39.290Z,997.83
2022-12-19T06:26:39.301Z,997.88
2022-12-19T06:27:39.271Z,997.96
2022-12-19T06:28:39.263Z,997.87
2022-12-19T06:29:39.279Z,997.81
2022-12-19T06:30:39.241Z,997.88
2022-12-19T06:31:39.390Z,997.87
2022-12-19T06:32:39.225Z,997.89
2022-12-19T06:33:39.219Z,997.81
2022-12-19T06:35:03.199Z,997.87
2022-12-19T06:35:39.200Z,997.74
2022-12-19T06:36:39.197Z,997.79
2022-12-19T06:37:45.848Z,997.79
2022-12-19T06:38:39.165Z,997.83
2022-12-19T06:39:39.140Z,997.82
2022-12-19T06:40:39.126Z,997.87
2022-12-19T06:41:39.115Z,997.89
2022-12-19T06:42:39.127Z,997.92
2022-12-19T06:43:39.090Z,997.84
2022-12-19T06:44:39.087Z,997.87
2022-12-19T06:45:39.166Z,997.85
2022-12-19T06:46:39.060Z,997.92
2022-12-19T06:47:39.041Z,997.92
2022-12-19T06:48:39.028Z,997.81
2022-12-19T06:49:39.022Z,997.85
2022-12-19T06:50:39.013Z,997.98
2022-12-19T06:51:39.013Z,997.89
2022-12-19T06:52:39.004Z,997.82
2022-12-19T06:53:38.984Z,997.79
2022-12-19T06:54:38.964Z,997.89
2022-12-19T06:55:38.965Z,997.91
2022-12-19T06:56:38.941Z,997.87
2022-12-19T06:57:38.930Z,997.84
2022-12-19T06:58:38.915Z,997.95
2022-12-19T06:59:38.915Z,997.95
2022-12-19T07:00:38.939Z,997.81
2022-12-19T07:01:39.025Z,997.85
2022-12-19T07:02:38.976Z,997.87
2022-12-19T07:03:38.852Z,997.89
2022-12-19T07:04:38.860Z,997.91
2022-12-19T07:05:38.832Z,997.90
2022-12-19T07:06:38.838Z,997.80
2022-12-19T07:07:38.814Z,997.80
2022-12-19T07:08:38.804Z,997.79
2022-12-19T07:09:38.810Z,997.86
2022-12-19T07:10:38.842Z,997.85
2022-12-19T07:11:38.770Z,997.83
2022-12-19T07:12:38.772Z,997.85
2022-12-19T07:13:38.757Z,997.86
2022-12-19T07:14:38.748Z,997.80
2022-12-19T07:15:38.741Z,997.88
2022-12-19T07:16:38.798Z,997.91
2022-12-19T07:17:38.715Z,997.91
2022-12-19T07:18:38.696Z,997.82
2022-12-19T07:19:38.670Z,997.86
2022-12-19T07:20:43.318Z,997.91
2022-12-19T07:21:38.660Z,997.87
2022-12-19T07:22:38.681Z,997.78
2022-12-19T07:23:38.641Z,997.87
2022-12-19T07:24:38.634Z,997.95
2022-12-19T07:25:38.608Z,997.93
2022-12-19T07:26:38.592Z,997.94
2022-12-19T07:27:38.583Z,997.94
2022-12-19T07:28:38.584Z,997.95
2022-12-19T07:29:38.571Z,997.93
2022-12-19T07:30:38.565Z,997.90
2022-12-19T07:31:38.592Z,997.90
2022-12-19T07:32:38.536Z,997.84
2022-12-19T07:33:38.542Z,997.85
2022-12-19T07:34:38.512Z,997.93
2022-12-19T07:35:38.497Z,997.98
2022-12-19T07:36:38.476Z,997.97
2022-12-19T07:37:38.522Z,998.02
2022-12-19T07:38:38.465Z,997.77
2022-12-19T07:39:38.460Z,997.63
2022-12-19T07:40:38.439Z,997.72
2022-12-19T07:41:38.437Z,997.79
2022-12-19T07:42:38.422Z,997.94
2022-12-19T07:43:38.454Z,997.91
2022-12-19T07:44:38.416Z,997.93
2022-12-19T07:45:38.449Z,997.92
2022-12-19T07:46:38.372Z,997.97
2022-12-19T07:47:38.366Z,997.96
2022-12-19T07:48:38.340Z,997.87
2022-12-19T07:49:38.376Z,997.86
2022-12-19T07:50:38.343Z,997.92
2022-12-19T07:51:38.357Z,998.14
2022-12-19T07:52:38.303Z,998.15
2022-12-19T07:53:38.289Z,998.09
2022-12-19T07:54:38.294Z,998.13
2022-12-19T07:55:38.269Z,998.02
2022-12-19T07:56:38.280Z,998.07
2022-12-19T07:57:38.260Z,998.01
2022-12-19T07:58:38.247Z,998.00
2022-12-19T07:59:39.385Z,997.98
2022-12-19T08:00:38.208Z,998.12
2022-12-19T08:01:38.300Z,998.16
2022-12-19T08:02:38.376Z,998.11
2022-12-19T08:03:38.177Z,998.08
2022-12-19T08:04:38.187Z,998.06
2022-12-19T08:05:38.173Z,998.12
2022-12-19T08:06:41.272Z,998.20
2022-12-19T08:07:38.172Z,998.18
2022-12-19T08:08:38.135Z,998.14
2022-12-19T08:09:38.154Z,998.17
2022-12-19T08:10:38.101Z,998.05
2022-12-19T08:11:38.097Z,998.06
2022-12-19T08:12:38.083Z,998.07
2022-12-19T08:13:43.273Z,998.07
2022-12-19T08:14:38.074Z,998.04
2022-12-19T08:15:38.041Z,997.99
2022-12-19T08:17:11.107Z,998.03
2022-12-19T08:17:38.136Z,998.11
2022-12-19T08:18:38.032Z,998.00
2022-12-19T08:19:38.001Z,998.11
2022-12-19T08:20:38.000Z,998.11
2022-12-19T08:21:37.986Z,998.08
2022-12-19T08:22:37.994Z,998.03
2022-12-19T08:23:37.980Z,998.08
2022-12-19T08:24:37.964Z,998.07
2022-12-19T08:25:37.955Z,998.08
2022-12-19T08:26:41.831Z,997.88
2022-12-19T08:27:37.925Z,997.87
2022-12-19T08:28:37.889Z,997.90
2022-12-19T08:29:37.887Z,997.96
2022-12-19T08:30:37.985Z,998.04
2022-12-19T08:31:37.878Z,998.02
2022-12-19T08:32:37.903Z,998.02
2022-12-19T08:33:37.862Z,997.92
2022-12-19T08:34:37.854Z,997.93
2022-12-19T08:35:37.838Z,997.97
2022-12-19T08:36:37.801Z,997.98
2022-12-19T08:37:37.798Z,997.95
2022-12-19T08:38:37.817Z,998.02
2022-12-19T08:39:37.831Z,998.03
2022-12-19T08:40:40.506Z,998.07
2022-12-19T08:41:37.763Z,998.10
2022-12-19T08:42:37.753Z,998.00
2022-12-19T08:43:37.770Z,997.93
2022-12-19T08:44:37.706Z,997.98
2022-12-19T08:45:37.771Z,998.03
2022-12-19T08:46:37.793Z,998.00
2022-12-19T08:47:37.691Z,998.07
2022-12-19T08:48:37.676Z,997.90
2022-12-19T08:49:37.683Z,997.92
2022-12-19T08:50:37.661Z,997.91
2022-12-19T08:51:37.641Z,997.86
2022-12-19T08:52:37.628Z,997.94
2022-12-19T08:53:37.665Z,997.96
2022-12-19T08:54:37.636Z,997.91
2022-12-19T08:55:37.623Z,997.83
2022-12-19T08:56:37.604Z,997.78
2022-12-19T08:57:37.595Z,997.90
2022-12-19T08:58:37.589Z,997.95
2022-12-19T08:59:37.567Z,997.91
2022-12-19T09:00:37.553Z,998.00
2022-12-19T09:01:37.580Z,998.03
2022-12-19T09:02:37.773Z,997.93
2022-12-19T09:03:56.173Z,997.91
2022-12-19T09:05:59.259Z,997.91
2022-12-19T09:06:17.157Z,997.92
2022-12-19T09:06:44.294Z,997.84
2022-12-19T09:07:44.181Z,997.86
2022-12-19T09:08:44.178Z,997.85
2022-12-19T09:09:44.234Z,997.87
2022-12-19T09:10:44.202Z,997.95
2022-12-19T09:11:47.630Z,997.87
2022-12-19T09:12:44.132Z,997.80
2022-12-19T09:13:44.142Z,997.88
2022-12-19T09:14:44.225Z,997.77
2022-12-19T09:15:44.117Z,997.73
2022-12-19T09:16:44.113Z,997.79
2022-12-19T09:17:44.082Z,997.80
2022-12-19T09:18:48.417Z,997.86
2022-12-19T09:19:44.515Z,997.85
2022-12-19T09:20:44.051Z,997.76
2022-12-19T09:21:44.063Z,997.66
2022-12-19T09:22:44.019Z,997.78
2022-12-19T09:23:44.079Z,997.81
2022-12-19T09:24:44.043Z,997.71
2022-12-19T09:25:43.986Z,997.66
2022-12-19T09:26:44.005Z,997.71
2022-12-19T09:28:17.932Z,997.66
2022-12-19T09:28:43.968Z,997.65
2022-12-19T09:29:43.961Z,997.66
2022-12-19T09:30:43.952Z,997.73
2022-12-19T09:31:43.916Z,997.75
2022-12-19T09:32:43.906Z,997.79
2022-12-19T09:33:44.222Z,997.77
2022-12-19T09:34:43.885Z,997.81
2022-12-19T09:35:43.894Z,997.88
2022-12-19T09:36:43.852Z,997.79
2022-12-19T09:37:43.881Z,997.85
2022-12-19T09:38:43.838Z,997.85
2022-12-19T09:39:43.820Z,997.82
2022-12-19T09:40:43.806Z,997.78
2022-12-19T09:41:43.826Z,997.76
2022-12-19T09:42:43.802Z,997.73
2022-12-19T09:43:43.833Z,997.81
2022-12-19T09:44:43.767Z,997.85
2022-12-19T09:45:43.764Z,997.83
2022-12-19T09:46:43.852Z,997.76
2022-12-19T09:47:43.741Z,997.85
2022-12-19T09:48:45.245Z,997.87
2022-12-19T09:49:43.723Z,997.90
2022-12-19T09:50:43.713Z,997.90
2022-12-19T09:51:43.701Z,997.87
2022-12-19T09:52:43.700Z,997.86
2022-12-19T09:53:43.672Z,997.83
2022-12-19T09:54:43.651Z,997.84
2022-12-19T09:55:43.649Z,997.84
2022-12-19T09:56:45.750Z,997.84
2022-12-19T09:57:43.628Z,997.87
2022-12-19T09:58:43.613Z,997.94
2022-12-19T09:59:49.603Z,997.91
2022-12-19T10:00:43.611Z,997.98
2022-12-19T10:01:43.729Z,997.96
2022-12-19T10:02:43.838Z,997.97
2022-12-19T10:03:43.620Z,998.02
2022-12-19T10:04:43.554Z,998.01
2022-12-19T10:06:16.703Z,997.97
2022-12-19T10:07:40.077Z,998.02
2022-12-19T10:08:08.361Z,998.07
2022-12-19T10:09:34.061Z,998.07
2022-12-19T10:12:39.944Z,998.09
2022-12-19T10:12:53.155Z,998.17
2022-12-19T10:13:00.079Z,998.04
2022-12-19T10:13:59.573Z,998.09
2022-12-19T10:14:59.555Z,998.11
2022-12-19T10:16:00.683Z,998.14
2022-12-19T10:17:22.988Z,998.01
2022-12-19T10:17:59.530Z,998.03
2022-12-19T10:18:59.532Z,998.13
2022-12-19T10:19:59.522Z,998.16
2022-12-19T10:20:59.488Z,998.18
2022-12-19T10:22:17.718Z,998.18
2022-12-19T10:22:59.490Z,998.13
2022-12-19T10:23:59.485Z,998.17
2022-12-19T10:25:08.292Z,998.18
2022-12-19T10:25:59.451Z,998.11
2022-12-19T10:26:59.440Z,998.03
2022-12-19T10:28:00.560Z,998.04
2022-12-19T10:28:59.439Z,997.93
2022-12-19T10:29:59.391Z,997.92
2022-12-19T10:31:02.634Z,997.93
2022-12-19T10:31:59.499Z,998.03
2022-12-19T10:32:59.403Z,997.96
2022-12-19T10:33:59.374Z,998.04
2022-12-19T10:34:59.424Z,998.04
2022-12-19T10:36:02.331Z,997.99
2022-12-19T10:37:27.052Z,998.03
2022-12-19T10:37:59.319Z,998.00
2022-12-19T10:38:59.311Z,998.02
2022-12-19T10:39:59.292Z,998.02
2022-12-19T10:40:59.295Z,997.94
2022-12-19T10:41:59.313Z,997.99
2022-12-19T10:42:59.270Z,997.90
2022-12-19T10:43:59.271Z,997.95
2022-12-19T10:44:59.241Z,997.92
2022-12-19T10:45:59.413Z,997.90
2022-12-19T10:46:59.283Z,997.86
2022-12-19T10:47:59.186Z,997.83
2022-12-19T10:48:59.197Z,997.71
2022-12-19T10:50:03.879Z,997.78
2022-12-19T10:51:02.112Z,997.73
2022-12-19T10:51:59.184Z,997.77
2022-12-19T10:52:59.183Z,997.65
2022-12-19T10:53:59.145Z,997.68
2022-12-19T10:54:59.169Z,997.70
2022-12-19T10:55:59.128Z,997.68
2022-12-19T10:56:59.104Z,997.75
2022-12-19T10:57:59.088Z,997.75
2022-12-19T10:58:59.090Z,997.82
2022-12-19T10:59:59.102Z,997.84
2022-12-19T11:00:59.115Z,997.83
2022-12-19T11:02:00.654Z,997.81
2022-12-19T11:02:59.158Z,997.75
2022-12-19T11:03:59.045Z,997.82
2022-12-19T11:04:59.165Z,997.76
2022-12-19T11:05:59.048Z,997.73
2022-12-19T11:06:58.976Z,997.71
2022-12-19T11:07:58.998Z,997.69
2022-12-19T11:08:59.013Z,997.74
2022-12-19T11:10:43.483Z,997.74
2022-12-19T11:16:47.266Z,997.74
2022-12-19T11:29:37.047Z,997.68
2022-12-19T11:33:14.892Z,997.78
2022-12-19T11:34:14.755Z,997.80
2022-12-19T11:35:14.750Z,997.81
2022-12-19T11:36:14.737Z,997.80
2022-12-19T11:37:14.725Z,997.76
2022-12-19T11:38:14.702Z,997.77
2022-12-19T11:39:14.691Z,997.80
2022-12-19T11:40:14.756Z,997.74
2022-12-19T11:41:14.675Z,997.73
2022-12-19T11:42:14.663Z,997.80
2022-12-19T11:44:14.652Z,997.71
2022-12-19T11:45:14.635Z,997.76
2022-12-19T11:46:21.177Z,997.73
2022-12-19T11:47:14.618Z,997.77
2022-12-19T11:48:14.592Z,997.75
2022-12-19T11:49:14.583Z,997.75
2022-12-19T11:50:14.610Z,997.70
2022-12-19T11:51:14.578Z,997.75
2022-12-19T11:52:36.787Z,997.73
2022-12-19T11:53:18.895Z,997.71
2022-12-19T11:54:14.524Z,997.72
2022-12-19T11:55:14.521Z,997.65
2022-12-19T11:56:16.245Z,997.73
2022-12-19T11:57:14.523Z,997.72
2022-12-19T11:58:14.538Z,997.72
2022-12-19T11:59:14.486Z,997.65
2022-12-19T12:00:14.481Z,997.65
2022-12-19T12:01:14.440Z,997.67
2022-12-19T12:02:14.440Z,997.70
2022-12-19T12:03:14.528Z,997.71
2022-12-19T12:04:14.741Z,997.80
2022-12-19T12:05:14.403Z,997.75
2022-12-19T12:06:14.400Z,997.73
2022-12-19T12:07:51.726Z,997.72
2022-12-19T12:10:06.004Z,997.78
2022-12-19T12:27:26.100Z,997.78
2022-12-19T12:35:46.913Z,997.37
2022-12-19T12:38:24.823Z,997.36
2022-12-19T12:39:03.873Z,997.38
2022-12-19T12:40:03.721Z,997.38
2022-12-19T12:41:03.744Z,997.32
2022-12-19T12:42:03.703Z,997.27
2022-12-19T12:43:03.671Z,997.27
2022-12-19T12:44:03.703Z,997.28
2022-12-19T12:45:03.686Z,997.27
2022-12-19T12:46:03.779Z,997.25
2022-12-19T12:47:03.695Z,997.23
2022-12-19T12:48:03.685Z,997.23
2022-12-19T12:49:03.633Z,997.20
2022-12-19T12:50:03.616Z,997.10
2022-12-19T12:51:03.589Z,997.17
2022-12-19T12:52:03.637Z,997.06
2022-12-19T12:53:03.568Z,997.02
2022-12-19T12:54:03.628Z,997.16
2022-12-19T12:55:03.545Z,997.07
2022-12-19T12:56:05.670Z,997.11
2022-12-19T12:57:03.537Z,997.18
2022-12-19T12:58:03.516Z,997.23
2022-12-19T12:59:03.495Z,997.06
2022-12-19T13:00:03.519Z,997.09
2022-12-19T13:01:03.533Z,997.15
2022-12-19T13:02:03.675Z,997.10
2022-12-19T13:03:03.681Z,997.10
2022-12-19T13:04:03.479Z,997.16
2022-12-19T13:05:03.439Z,997.15
2022-12-19T13:06:03.437Z,997.23
2022-12-19T13:07:03.406Z,997.15
2022-12-19T13:08:03.438Z,997.23
2022-12-19T13:09:03.389Z,997.10
2022-12-19T13:10:03.381Z,997.12
2022-12-19T13:11:03.370Z,997.12
2022-12-19T13:12:03.376Z,997.10
2022-12-19T13:13:04.348Z,997.14
2022-12-19T13:14:03.332Z,997.10
2022-12-19T13:15:03.371Z,997.02
2022-12-19T13:16:03.327Z,997.11